sensor_id;sensor_type;location;lat;lon;timestamp;P1;durP1;ratioP1;P2;durP2;ratioP2
52512;SDS011;38422;53.172;6.974;2024-02-26T00:02:20;13.73;;;9.55;;
52512;SDS011;38422;53.172;6.974;2024-02-26T00:04:46;13.90;;;10.00;;
52512;SDS011;38422;53.172;6.974;2024-02-26T00:07:11;14.02;;;10.25;;
52512;SDS011;38422;53.172;6.974;2024-02-26T00:09:37;14.10;;;9.88;;
52512;SDS011;38422;53.172;6.974;2024-02-26T00:12:03;14.02;;;10.52;;
52512;SDS011;38422;53.172;6.974;2024-02-26T00:14:30;15.53;;;10.60;;
52512;SDS011;38422;53.172;6.974;2024-02-26T00:16:56;14.73;;;10.63;;
52512;SDS011;38422;53.172;6.974;2024-02-26T00:19:22;15.23;;;11.25;;
52512;SDS011;38422;53.172;6.974;2024-02-26T00:21:47;15.02;;;10.90;;
52512;SDS011;38422;53.172;6.974;2024-02-26T00:24:13;15.57;;;10.40;;
52512;SDS011;38422;53.172;6.974;2024-02-26T00:26:39;15.20;;;10.68;;
52512;SDS011;38422;53.172;6.974;2024-02-26T00:29:05;15.95;;;10.35;;
52512;SDS011;38422;53.172;6.974;2024-02-26T00:31:30;14.48;;;10.40;;
52512;SDS011;38422;53.172;6.974;2024-02-26T00:33:56;15.73;;;10.40;;
52512;SDS011;38422;53.172;6.974;2024-02-26T00:36:22;15.05;;;10.07;;
52512;SDS011;38422;53.172;6.974;2024-02-26T00:38:48;13.40;;;9.82;;
52512;SDS011;38422;53.172;6.974;2024-02-26T00:41:19;13.05;;;9.50;;
52512;SDS011;38422;53.172;6.974;2024-02-26T00:43:45;14.55;;;9.90;;
52512;SDS011;38422;53.172;6.974;2024-02-26T00:46:11;13.38;;;10.05;;
52512;SDS011;38422;53.172;6.974;2024-02-26T00:48:37;14.05;;;9.57;;
52512;SDS011;38422;53.172;6.974;2024-02-26T00:51:03;13.43;;;9.75;;
52512;SDS011;38422;53.172;6.974;2024-02-26T00:53:30;13.63;;;10.15;;
52512;SDS011;38422;53.172;6.974;2024-02-26T00:55:56;13.10;;;9.52;;
52512;SDS011;38422;53.172;6.974;2024-02-26T00:58:24;14.00;;;9.95;;
52512;SDS011;38422;53.172;6.974;2024-02-26T01:00:50;12.38;;;9.35;;
52512;SDS011;38422;53.172;6.974;2024-02-26T01:03:17;14.55;;;10.38;;
52512;SDS011;38422;53.172;6.974;2024-02-26T01:05:43;14.70;;;10.77;;
52512;SDS011;38422;53.172;6.974;2024-02-26T01:08:08;14.60;;;10.15;;
52512;SDS011;38422;53.172;6.974;2024-02-26T01:10:34;13.40;;;10.30;;
52512;SDS011;38422;53.172;6.974;2024-02-26T01:13:00;14.45;;;10.45;;
52512;SDS011;38422;53.172;6.974;2024-02-26T01:15:26;14.23;;;10.10;;
52512;SDS011;38422;53.172;6.974;2024-02-26T01:17:52;16.10;;;10.70;;
52512;SDS011;38422;53.172;6.974;2024-02-26T01:20:18;15.10;;;10.38;;
52512;SDS011;38422;53.172;6.974;2024-02-26T01:22:44;13.57;;;9.93;;
52512;SDS011;38422;53.172;6.974;2024-02-26T01:25:10;12.35;;;9.45;;
52512;SDS011;38422;53.172;6.974;2024-02-26T01:27:37;12.87;;;10.13;;
52512;SDS011;38422;53.172;6.974;2024-02-26T01:30:03;11.85;;;8.88;;
52512;SDS011;38422;53.172;6.974;2024-02-26T01:32:29;11.13;;;8.32;;
52512;SDS011;38422;53.172;6.974;2024-02-26T01:34:55;12.20;;;9.30;;
52512;SDS011;38422;53.172;6.974;2024-02-26T01:37:21;11.65;;;8.48;;
52512;SDS011;38422;53.172;6.974;2024-02-26T01:39:47;11.73;;;9.02;;
52512;SDS011;38422;53.172;6.974;2024-02-26T01:42:13;11.50;;;8.90;;
52512;SDS011;38422;53.172;6.974;2024-02-26T01:44:39;12.30;;;8.93;;
52512;SDS011;38422;53.172;6.974;2024-02-26T01:47:09;11.50;;;8.93;;
52512;SDS011;38422;53.172;6.974;2024-02-26T01:49:36;12.50;;;9.77;;
52512;SDS011;38422;53.172;6.974;2024-02-26T01:52:04;12.85;;;10.40;;
52512;SDS011;38422;53.172;6.974;2024-02-26T01:54:31;12.68;;;9.13;;
52512;SDS011;38422;53.172;6.974;2024-02-26T01:57:02;13.32;;;8.80;;
52512;SDS011;38422;53.172;6.974;2024-02-26T01:59:28;10.90;;;8.20;;
52512;SDS011;38422;53.172;6.974;2024-02-26T02:01:55;9.75;;;7.88;;
52512;SDS011;38422;53.172;6.974;2024-02-26T02:04:24;13.05;;;9.15;;
52512;SDS011;38422;53.172;6.974;2024-02-26T02:06:50;10.23;;;8.18;;
52512;SDS011;38422;53.172;6.974;2024-02-26T02:09:17;11.73;;;8.57;;
52512;SDS011;38422;53.172;6.974;2024-02-26T02:11:43;12.05;;;8.00;;
52512;SDS011;38422;53.172;6.974;2024-02-26T02:14:09;11.00;;;8.18;;
52512;SDS011;38422;53.172;6.974;2024-02-26T02:16:35;11.95;;;8.52;;
52512;SDS011;38422;53.172;6.974;2024-02-26T02:19:01;9.68;;;7.63;;
52512;SDS011;38422;53.172;6.974;2024-02-26T02:21:26;10.18;;;7.60;;
52512;SDS011;38422;53.172;6.974;2024-02-26T02:23:52;9.27;;;7.43;;
52512;SDS011;38422;53.172;6.974;2024-02-26T02:26:18;10.48;;;7.03;;
52512;SDS011;38422;53.172;6.974;2024-02-26T02:28:44;9.80;;;7.43;;
52512;SDS011;38422;53.172;6.974;2024-02-26T02:31:11;8.55;;;6.72;;
52512;SDS011;38422;53.172;6.974;2024-02-26T02:33:37;8.98;;;6.60;;
52512;SDS011;38422;53.172;6.974;2024-02-26T02:36:03;8.20;;;6.60;;
52512;SDS011;38422;53.172;6.974;2024-02-26T02:38:29;7.28;;;5.63;;
52512;SDS011;38422;53.172;6.974;2024-02-26T02:40:56;6.85;;;4.90;;
52512;SDS011;38422;53.172;6.974;2024-02-26T02:43:22;6.50;;;4.82;;
52512;SDS011;38422;53.172;6.974;2024-02-26T02:45:48;6.28;;;5.07;;
52512;SDS011;38422;53.172;6.974;2024-02-26T02:48:13;5.82;;;4.70;;
52512;SDS011;38422;53.172;6.974;2024-02-26T02:50:39;6.22;;;4.57;;
52512;SDS011;38422;53.172;6.974;2024-02-26T02:53:05;6.85;;;4.60;;
52512;SDS011;38422;53.172;6.974;2024-02-26T02:55:31;6.05;;;4.65;;
52512;SDS011;38422;53.172;6.974;2024-02-26T02:57:56;6.55;;;4.90;;
52512;SDS011;38422;53.172;6.974;2024-02-26T03:00:22;7.10;;;4.07;;
52512;SDS011;38422;53.172;6.974;2024-02-26T03:02:48;5.35;;;4.25;;
52512;SDS011;38422;53.172;6.974;2024-02-26T03:05:14;6.13;;;4.57;;
52512;SDS011;38422;53.172;6.974;2024-02-26T03:07:40;7.45;;;4.55;;
52512;SDS011;38422;53.172;6.974;2024-02-26T03:10:06;7.10;;;4.38;;
52512;SDS011;38422;53.172;6.974;2024-02-26T03:12:33;6.35;;;4.28;;
52512;SDS011;38422;53.172;6.974;2024-02-26T03:14:59;6.50;;;4.60;;
52512;SDS011;38422;53.172;6.974;2024-02-26T03:17:28;7.05;;;5.03;;
52512;SDS011;38422;53.172;6.974;2024-02-26T03:19:54;7.88;;;5.18;;
52512;SDS011;38422;53.172;6.974;2024-02-26T03:22:20;7.18;;;4.90;;
52512;SDS011;38422;53.172;6.974;2024-02-26T03:24:46;8.13;;;5.38;;
52512;SDS011;38422;53.172;6.974;2024-02-26T03:27:12;7.75;;;5.40;;
52512;SDS011;38422;53.172;6.974;2024-02-26T03:29:38;7.72;;;4.90;;
52512;SDS011;38422;53.172;6.974;2024-02-26T03:32:06;8.63;;;5.05;;
52512;SDS011;38422;53.172;6.974;2024-02-26T03:34:32;7.32;;;4.65;;
52512;SDS011;38422;53.172;6.974;2024-02-26T03:37:01;7.35;;;4.28;;
52512;SDS011;38422;53.172;6.974;2024-02-26T03:39:27;6.72;;;4.60;;
52512;SDS011;38422;53.172;6.974;2024-02-26T03:41:52;7.45;;;4.35;;
52512;SDS011;38422;53.172;6.974;2024-02-26T03:44:19;5.33;;;4.00;;
52512;SDS011;38422;53.172;6.974;2024-02-26T03:46:45;6.57;;;4.78;;
52512;SDS011;38422;53.172;6.974;2024-02-26T03:49:11;5.32;;;4.03;;
52512;SDS011;38422;53.172;6.974;2024-02-26T03:51:36;6.93;;;4.25;;
52512;SDS011;38422;53.172;6.974;2024-02-26T03:54:02;5.13;;;3.72;;
52512;SDS011;38422;53.172;6.974;2024-02-26T03:56:28;6.32;;;3.80;;
52512;SDS011;38422;53.172;6.974;2024-02-26T03:58:53;5.15;;;3.78;;
52512;SDS011;38422;53.172;6.974;2024-02-26T04:01:19;6.60;;;3.50;;
52512;SDS011;38422;53.172;6.974;2024-02-26T04:03:45;6.82;;;3.67;;
52512;SDS011;38422;53.172;6.974;2024-02-26T04:06:11;6.63;;;3.50;;
52512;SDS011;38422;53.172;6.974;2024-02-26T04:08:39;4.18;;;3.03;;
52512;SDS011;38422;53.172;6.974;2024-02-26T04:11:06;5.20;;;3.33;;
52512;SDS011;38422;53.172;6.974;2024-02-26T04:13:35;5.50;;;3.60;;
52512;SDS011;38422;53.172;6.974;2024-02-26T04:16:05;8.55;;;3.55;;
52512;SDS011;38422;53.172;6.974;2024-02-26T04:18:31;6.55;;;3.25;;
52512;SDS011;38422;53.172;6.974;2024-02-26T04:20:57;4.37;;;3.23;;
52512;SDS011;38422;53.172;6.974;2024-02-26T04:23:23;5.35;;;3.53;;
52512;SDS011;38422;53.172;6.974;2024-02-26T04:25:49;6.03;;;3.35;;
52512;SDS011;38422;53.172;6.974;2024-02-26T04:28:15;6.82;;;3.53;;
52512;SDS011;38422;53.172;6.974;2024-02-26T04:30:41;6.38;;;3.78;;
52512;SDS011;38422;53.172;6.974;2024-02-26T04:33:07;5.93;;;3.72;;
52512;SDS011;38422;53.172;6.974;2024-02-26T04:35:32;5.00;;;3.38;;
52512;SDS011;38422;53.172;6.974;2024-02-26T04:40:26;4.70;;;3.38;;
52512;SDS011;38422;53.172;6.974;2024-02-26T04:42:51;5.10;;;3.40;;
52512;SDS011;38422;53.172;6.974;2024-02-26T04:45:17;5.10;;;3.45;;
52512;SDS011;38422;53.172;6.974;2024-02-26T04:47:43;6.00;;;3.30;;
52512;SDS011;38422;53.172;6.974;2024-02-26T04:50:08;3.83;;;2.97;;
52512;SDS011;38422;53.172;6.974;2024-02-26T04:52:34;5.95;;;3.10;;
52512;SDS011;38422;53.172;6.974;2024-02-26T04:55:01;5.33;;;3.30;;
52512;SDS011;38422;53.172;6.974;2024-02-26T04:57:27;4.80;;;3.15;;
52512;SDS011;38422;53.172;6.974;2024-02-26T04:59:53;5.85;;;3.10;;
52512;SDS011;38422;53.172;6.974;2024-02-26T05:02:19;5.10;;;2.63;;
52512;SDS011;38422;53.172;6.974;2024-02-26T05:04:44;6.88;;;2.85;;
52512;SDS011;38422;53.172;6.974;2024-02-26T05:07:10;5.70;;;2.85;;
52512;SDS011;38422;53.172;6.974;2024-02-26T05:09:37;4.07;;;2.90;;
52512;SDS011;38422;53.172;6.974;2024-02-26T05:12:03;5.03;;;2.70;;
52512;SDS011;38422;53.172;6.974;2024-02-26T05:14:29;3.60;;;2.55;;
52512;SDS011;38422;53.172;6.974;2024-02-26T05:16:55;4.32;;;2.60;;
52512;SDS011;38422;53.172;6.974;2024-02-26T05:19:21;4.28;;;2.70;;
52512;SDS011;38422;53.172;6.974;2024-02-26T05:21:47;4.88;;;2.60;;
52512;SDS011;38422;53.172;6.974;2024-02-26T05:24:14;4.22;;;2.50;;
52512;SDS011;38422;53.172;6.974;2024-02-26T05:26:42;4.72;;;2.60;;
52512;SDS011;38422;53.172;6.974;2024-02-26T05:29:08;5.55;;;2.80;;
52512;SDS011;38422;53.172;6.974;2024-02-26T05:31:34;5.72;;;2.95;;
52512;SDS011;38422;53.172;6.974;2024-02-26T05:34:00;4.90;;;2.70;;
52512;SDS011;38422;53.172;6.974;2024-02-26T05:36:25;4.57;;;2.40;;
52512;SDS011;38422;53.172;6.974;2024-02-26T05:38:53;3.90;;;2.60;;
52512;SDS011;38422;53.172;6.974;2024-02-26T05:41:19;4.65;;;2.38;;
52512;SDS011;38422;53.172;6.974;2024-02-26T05:43:51;3.65;;;2.40;;
52512;SDS011;38422;53.172;6.974;2024-02-26T05:46:17;3.63;;;2.38;;
52512;SDS011;38422;53.172;6.974;2024-02-26T05:48:44;2.95;;;1.42;;
52512;SDS011;38422;53.172;6.974;2024-02-26T05:51:12;4.35;;;1.70;;
52512;SDS011;38422;53.172;6.974;2024-02-26T05:53:38;3.70;;;1.70;;
52512;SDS011;38422;53.172;6.974;2024-02-26T05:56:03;2.88;;;1.63;;
52512;SDS011;38422;53.172;6.974;2024-02-26T05:58:29;3.10;;;1.80;;
52512;SDS011;38422;53.172;6.974;2024-02-26T06:00:55;3.10;;;1.90;;
52512;SDS011;38422;53.172;6.974;2024-02-26T06:03:20;3.53;;;1.67;;
52512;SDS011;38422;53.172;6.974;2024-02-26T06:05:46;2.97;;;1.30;;
52512;SDS011;38422;53.172;6.974;2024-02-26T06:08:12;2.75;;;1.35;;
52512;SDS011;38422;53.172;6.974;2024-02-26T06:10:39;3.87;;;1.60;;
52512;SDS011;38422;53.172;6.974;2024-02-26T06:13:05;2.13;;;1.08;;
52512;SDS011;38422;53.172;6.974;2024-02-26T06:15:30;3.15;;;1.52;;
52512;SDS011;38422;53.172;6.974;2024-02-26T06:17:56;2.75;;;1.45;;
52512;SDS011;38422;53.172;6.974;2024-02-26T06:20:22;3.15;;;1.60;;
52512;SDS011;38422;53.172;6.974;2024-02-26T06:22:47;2.35;;;1.20;;
52512;SDS011;38422;53.172;6.974;2024-02-26T06:25:13;2.78;;;1.30;;
52512;SDS011;38422;53.172;6.974;2024-02-26T06:27:39;2.50;;;1.23;;
52512;SDS011;38422;53.172;6.974;2024-02-26T06:30:05;3.50;;;1.45;;
52512;SDS011;38422;53.172;6.974;2024-02-26T06:32:31;3.05;;;1.50;;
52512;SDS011;38422;53.172;6.974;2024-02-26T06:34:56;3.05;;;1.40;;
52512;SDS011;38422;53.172;6.974;2024-02-26T06:37:22;2.70;;;1.30;;
52512;SDS011;38422;53.172;6.974;2024-02-26T06:39:48;2.53;;;1.35;;
52512;SDS011;38422;53.172;6.974;2024-02-26T06:42:14;3.42;;;1.40;;
52512;SDS011;38422;53.172;6.974;2024-02-26T06:44:39;2.28;;;1.33;;
52512;SDS011;38422;53.172;6.974;2024-02-26T06:47:05;2.95;;;1.50;;
52512;SDS011;38422;53.172;6.974;2024-02-26T06:49:31;2.17;;;1.20;;
52512;SDS011;38422;53.172;6.974;2024-02-26T06:51:56;4.03;;;1.35;;
52512;SDS011;38422;53.172;6.974;2024-02-26T06:54:22;2.65;;;1.42;;
52512;SDS011;38422;53.172;6.974;2024-02-26T06:56:48;3.08;;;1.58;;
52512;SDS011;38422;53.172;6.974;2024-02-26T06:59:13;3.30;;;1.33;;
52512;SDS011;38422;53.172;6.974;2024-02-26T07:01:40;2.83;;;1.58;;
52512;SDS011;38422;53.172;6.974;2024-02-26T07:04:06;3.60;;;1.73;;
52512;SDS011;38422;53.172;6.974;2024-02-26T07:06:32;3.03;;;1.52;;
52512;SDS011;38422;53.172;6.974;2024-02-26T07:08:58;2.28;;;1.35;;
52512;SDS011;38422;53.172;6.974;2024-02-26T07:11:24;2.80;;;1.52;;
52512;SDS011;38422;53.172;6.974;2024-02-26T07:13:49;2.33;;;1.38;;
52512;SDS011;38422;53.172;6.974;2024-02-26T07:16:15;2.40;;;1.42;;
52512;SDS011;38422;53.172;6.974;2024-02-26T07:18:41;3.17;;;1.52;;
52512;SDS011;38422;53.172;6.974;2024-02-26T07:21:08;4.05;;;1.70;;
52512;SDS011;38422;53.172;6.974;2024-02-26T07:23:34;2.50;;;1.45;;
52512;SDS011;38422;53.172;6.974;2024-02-26T07:26:00;2.67;;;1.60;;
52512;SDS011;38422;53.172;6.974;2024-02-26T07:28:26;3.55;;;1.40;;
52512;SDS011;38422;53.172;6.974;2024-02-26T07:30:51;2.92;;;1.52;;
52512;SDS011;38422;53.172;6.974;2024-02-26T07:33:17;3.08;;;1.70;;
52512;SDS011;38422;53.172;6.974;2024-02-26T07:35:43;3.28;;;1.60;;
52512;SDS011;38422;53.172;6.974;2024-02-26T07:38:09;3.47;;;1.45;;
52512;SDS011;38422;53.172;6.974;2024-02-26T07:40:34;2.78;;;1.42;;
52512;SDS011;38422;53.172;6.974;2024-02-26T07:43:01;2.53;;;1.47;;
52512;SDS011;38422;53.172;6.974;2024-02-26T07:45:27;3.67;;;1.70;;
52512;SDS011;38422;53.172;6.974;2024-02-26T07:47:52;2.90;;;1.67;;
52512;SDS011;38422;53.172;6.974;2024-02-26T07:50:18;2.83;;;1.63;;
52512;SDS011;38422;53.172;6.974;2024-02-26T07:52:44;3.80;;;2.03;;
52512;SDS011;38422;53.172;6.974;2024-02-26T07:55:10;3.40;;;2.10;;
52512;SDS011;38422;53.172;6.974;2024-02-26T07:57:36;3.65;;;2.08;;
52512;SDS011;38422;53.172;6.974;2024-02-26T08:00:03;3.60;;;1.95;;
52512;SDS011;38422;53.172;6.974;2024-02-26T08:02:32;3.25;;;1.88;;
52512;SDS011;38422;53.172;6.974;2024-02-26T08:04:59;3.30;;;1.95;;
52512;SDS011;38422;53.172;6.974;2024-02-26T08:07:24;3.00;;;1.70;;
52512;SDS011;38422;53.172;6.974;2024-02-26T08:09:50;3.30;;;1.88;;
52512;SDS011;38422;53.172;6.974;2024-02-26T08:12:16;3.25;;;1.75;;
52512;SDS011;38422;53.172;6.974;2024-02-26T08:14:42;3.20;;;1.83;;
52512;SDS011;38422;53.172;6.974;2024-02-26T08:17:09;2.75;;;1.80;;
52512;SDS011;38422;53.172;6.974;2024-02-26T08:19:34;4.63;;;1.90;;
52512;SDS011;38422;53.172;6.974;2024-02-26T08:22:01;3.95;;;2.00;;
52512;SDS011;38422;53.172;6.974;2024-02-26T08:24:27;3.65;;;2.15;;
52512;SDS011;38422;53.172;6.974;2024-02-26T08:26:53;4.05;;;2.22;;
52512;SDS011;38422;53.172;6.974;2024-02-26T08:29:19;4.55;;;2.17;;
52512;SDS011;38422;53.172;6.974;2024-02-26T08:31:45;4.60;;;2.03;;
52512;SDS011;38422;53.172;6.974;2024-02-26T08:34:10;3.88;;;2.00;;
52512;SDS011;38422;53.172;6.974;2024-02-26T08:36:36;3.50;;;2.08;;
52512;SDS011;38422;53.172;6.974;2024-02-26T08:39:02;3.90;;;2.13;;
52512;SDS011;38422;53.172;6.974;2024-02-26T08:41:28;5.15;;;2.00;;
52512;SDS011;38422;53.172;6.974;2024-02-26T08:43:54;3.83;;;2.05;;
52512;SDS011;38422;53.172;6.974;2024-02-26T08:46:19;3.58;;;1.90;;
52512;SDS011;38422;53.172;6.974;2024-02-26T08:48:46;4.43;;;2.05;;
52512;SDS011;38422;53.172;6.974;2024-02-26T08:51:11;5.45;;;2.15;;
52512;SDS011;38422;53.172;6.974;2024-02-26T08:53:38;3.72;;;1.88;;
52512;SDS011;38422;53.172;6.974;2024-02-26T08:56:04;3.92;;;2.20;;
52512;SDS011;38422;53.172;6.974;2024-02-26T08:58:30;5.10;;;1.83;;
52512;SDS011;38422;53.172;6.974;2024-02-26T09:00:56;4.07;;;2.75;;
52512;SDS011;38422;53.172;6.974;2024-02-26T09:03:22;3.90;;;2.85;;
52512;SDS011;38422;53.172;6.974;2024-02-26T09:05:48;4.10;;;2.70;;
52512;SDS011;38422;53.172;6.974;2024-02-26T09:08:14;3.63;;;2.67;;
52512;SDS011;38422;53.172;6.974;2024-02-26T09:10:40;4.70;;;2.80;;
52512;SDS011;38422;53.172;6.974;2024-02-26T09:13:06;4.05;;;2.85;;
52512;SDS011;38422;53.172;6.974;2024-02-26T09:15:32;4.28;;;2.85;;
52512;SDS011;38422;53.172;6.974;2024-02-26T09:17:58;4.88;;;2.55;;
52512;SDS011;38422;53.172;6.974;2024-02-26T09:20:24;4.20;;;2.70;;
52512;SDS011;38422;53.172;6.974;2024-02-26T09:22:49;3.83;;;2.80;;
52512;SDS011;38422;53.172;6.974;2024-02-26T09:25:16;5.28;;;3.00;;
52512;SDS011;38422;53.172;6.974;2024-02-26T09:27:42;5.25;;;2.65;;
52512;SDS011;38422;53.172;6.974;2024-02-26T09:30:12;4.47;;;2.83;;
52512;SDS011;38422;53.172;6.974;2024-02-26T09:32:38;5.00;;;2.60;;
52512;SDS011;38422;53.172;6.974;2024-02-26T09:35:05;4.50;;;2.67;;
52512;SDS011;38422;53.172;6.974;2024-02-26T09:37:31;3.63;;;2.38;;
52512;SDS011;38422;53.172;6.974;2024-02-26T09:39:58;3.72;;;2.30;;
52512;SDS011;38422;53.172;6.974;2024-02-26T09:42:27;3.97;;;2.47;;
52512;SDS011;38422;53.172;6.974;2024-02-26T09:44:56;4.20;;;2.70;;
52512;SDS011;38422;53.172;6.974;2024-02-26T09:47:26;4.63;;;2.40;;
52512;SDS011;38422;53.172;6.974;2024-02-26T09:49:54;4.15;;;2.20;;
52512;SDS011;38422;53.172;6.974;2024-02-26T09:52:22;3.97;;;2.00;;
52512;SDS011;38422;53.172;6.974;2024-02-26T09:54:49;4.28;;;1.95;;
52512;SDS011;38422;53.172;6.974;2024-02-26T09:57:15;4.72;;;2.03;;
52512;SDS011;38422;53.172;6.974;2024-02-26T09:59:42;3.70;;;2.00;;
52512;SDS011;38422;53.172;6.974;2024-02-26T10:02:09;2.80;;;1.60;;
52512;SDS011;38422;53.172;6.974;2024-02-26T10:04:37;4.90;;;1.77;;
52512;SDS011;38422;53.172;6.974;2024-02-26T10:07:04;3.45;;;1.92;;
52512;SDS011;38422;53.172;6.974;2024-02-26T10:09:37;4.03;;;1.73;;
52512;SDS011;38422;53.172;6.974;2024-02-26T10:12:04;3.95;;;1.85;;
52512;SDS011;38422;53.172;6.974;2024-02-26T10:14:32;3.83;;;1.73;;
52512;SDS011;38422;53.172;6.974;2024-02-26T10:16:58;3.10;;;1.63;;
52512;SDS011;38422;53.172;6.974;2024-02-26T10:19:26;3.25;;;1.50;;
52512;SDS011;38422;53.172;6.974;2024-02-26T10:21:56;3.45;;;1.63;;
52512;SDS011;38422;53.172;6.974;2024-02-26T10:24:24;4.32;;;1.60;;
52512;SDS011;38422;53.172;6.974;2024-02-26T10:26:50;4.45;;;1.73;;
52512;SDS011;38422;53.172;6.974;2024-02-26T10:29:18;2.97;;;1.58;;
52512;SDS011;38422;53.172;6.974;2024-02-26T10:31:44;2.72;;;1.50;;
52512;SDS011;38422;53.172;6.974;2024-02-26T10:34:10;2.72;;;1.45;;
52512;SDS011;38422;53.172;6.974;2024-02-26T10:36:36;3.28;;;1.58;;
52512;SDS011;38422;53.172;6.974;2024-02-26T10:39:05;2.20;;;1.05;;
52512;SDS011;38422;53.172;6.974;2024-02-26T10:41:32;2.42;;;1.30;;
52512;SDS011;38422;53.172;6.974;2024-02-26T10:43:59;2.53;;;1.30;;
52512;SDS011;38422;53.172;6.974;2024-02-26T10:46:25;2.63;;;1.40;;
52512;SDS011;38422;53.172;6.974;2024-02-26T10:48:51;3.08;;;1.60;;
52512;SDS011;38422;53.172;6.974;2024-02-26T10:51:28;5.18;;;1.65;;
52512;SDS011;38422;53.172;6.974;2024-02-26T10:53:55;2.83;;;1.33;;
52512;SDS011;38422;53.172;6.974;2024-02-26T10:56:28;2.72;;;1.38;;
52512;SDS011;38422;53.172;6.974;2024-02-26T10:58:58;2.50;;;1.30;;
52512;SDS011;38422;53.172;6.974;2024-02-26T11:01:24;2.13;;;1.17;;
52512;SDS011;38422;53.172;6.974;2024-02-26T11:03:52;2.53;;;1.38;;
52512;SDS011;38422;53.172;6.974;2024-02-26T11:06:19;2.10;;;1.27;;
52512;SDS011;38422;53.172;6.974;2024-02-26T11:08:52;4.20;;;1.50;;
52512;SDS011;38422;53.172;6.974;2024-02-26T11:11:19;1.83;;;1.05;;
52512;SDS011;38422;53.172;6.974;2024-02-26T11:13:46;3.20;;;1.40;;
52512;SDS011;38422;53.172;6.974;2024-02-26T11:16:20;2.60;;;1.10;;
52512;SDS011;38422;53.172;6.974;2024-02-26T11:18:47;2.47;;;1.20;;
52512;SDS011;38422;53.172;6.974;2024-02-26T11:21:16;3.58;;;1.30;;
52512;SDS011;38422;53.172;6.974;2024-02-26T11:24:03;2.83;;;1.40;;
52512;SDS011;38422;53.172;6.974;2024-02-26T11:26:31;2.40;;;1.30;;
52512;SDS011;38422;53.172;6.974;2024-02-26T11:29:01;3.17;;;1.48;;
52512;SDS011;38422;53.172;6.974;2024-02-26T11:31:28;4.17;;;1.60;;
52512;SDS011;38422;53.172;6.974;2024-02-26T11:33:54;2.90;;;1.38;;
52512;SDS011;38422;53.172;6.974;2024-02-26T11:36:21;3.03;;;1.48;;
52512;SDS011;38422;53.172;6.974;2024-02-26T11:38:49;3.40;;;1.30;;
52512;SDS011;38422;53.172;6.974;2024-02-26T11:41:17;2.55;;;1.50;;
52512;SDS011;38422;53.172;6.974;2024-02-26T11:43:50;2.95;;;1.60;;
52512;SDS011;38422;53.172;6.974;2024-02-26T11:49:03;3.42;;;1.70;;
52512;SDS011;38422;53.172;6.974;2024-02-26T11:51:52;3.15;;;1.52;;
52512;SDS011;38422;53.172;6.974;2024-02-26T11:54:45;4.93;;;1.60;;
52512;SDS011;38422;53.172;6.974;2024-02-26T11:59:47;3.05;;;1.58;;
52512;SDS011;38422;53.172;6.974;2024-02-26T12:05:16;3.15;;;1.58;;
52512;SDS011;38422;53.172;6.974;2024-02-26T12:07:46;4.43;;;1.98;;
52512;SDS011;38422;53.172;6.974;2024-02-26T12:10:23;4.75;;;2.10;;
52512;SDS011;38422;53.172;6.974;2024-02-26T12:12:54;5.07;;;2.00;;
52512;SDS011;38422;53.172;6.974;2024-02-26T12:15:26;4.50;;;2.10;;
52512;SDS011;38422;53.172;6.974;2024-02-26T12:17:56;5.68;;;2.40;;
52512;SDS011;38422;53.172;6.974;2024-02-26T12:20:21;4.68;;;2.17;;
52512;SDS011;38422;53.172;6.974;2024-02-26T12:22:49;5.28;;;2.33;;
52512;SDS011;38422;53.172;6.974;2024-02-26T12:25:17;4.70;;;2.58;;
52512;SDS011;38422;53.172;6.974;2024-02-26T12:27:47;4.90;;;2.40;;
52512;SDS011;38422;53.172;6.974;2024-02-26T12:30:13;3.72;;;2.20;;
52512;SDS011;38422;53.172;6.974;2024-02-26T12:32:39;3.75;;;2.10;;
52512;SDS011;38422;53.172;6.974;2024-02-26T12:35:05;3.92;;;1.95;;
52512;SDS011;38422;53.172;6.974;2024-02-26T12:37:31;7.20;;;2.40;;
52512;SDS011;38422;53.172;6.974;2024-02-26T12:39:57;4.38;;;2.28;;
52512;SDS011;38422;53.172;6.974;2024-02-26T12:42:23;4.65;;;2.40;;
52512;SDS011;38422;53.172;6.974;2024-02-26T12:44:49;4.72;;;2.10;;
52512;SDS011;38422;53.172;6.974;2024-02-26T12:49:43;3.92;;;1.90;;
52512;SDS011;38422;53.172;6.974;2024-02-26T12:52:12;6.07;;;2.60;;
52512;SDS011;38422;53.172;6.974;2024-02-26T12:54:38;5.85;;;2.92;;
52512;SDS011;38422;53.172;6.974;2024-02-26T12:57:06;6.40;;;3.17;;
52512;SDS011;38422;53.172;6.974;2024-02-26T12:59:33;4.80;;;2.75;;
52512;SDS011;38422;53.172;6.974;2024-02-26T13:02:00;4.22;;;2.53;;
52512;SDS011;38422;53.172;6.974;2024-02-26T13:04:28;5.45;;;2.88;;
52512;SDS011;38422;53.172;6.974;2024-02-26T13:06:55;4.63;;;2.65;;
52512;SDS011;38422;53.172;6.974;2024-02-26T13:09:20;5.60;;;2.47;;
52512;SDS011;38422;53.172;6.974;2024-02-26T13:11:53;5.07;;;3.08;;
52512;SDS011;38422;53.172;6.974;2024-02-26T13:14:22;5.10;;;3.22;;
52512;SDS011;38422;53.172;6.974;2024-02-26T13:16:55;7.05;;;3.38;;
52512;SDS011;38422;53.172;6.974;2024-02-26T13:19:21;5.30;;;3.33;;
52512;SDS011;38422;53.172;6.974;2024-02-26T13:21:47;4.97;;;3.35;;
52512;SDS011;38422;53.172;6.974;2024-02-26T13:24:13;5.38;;;2.63;;
52512;SDS011;38422;53.172;6.974;2024-02-26T13:26:39;4.18;;;2.25;;
52512;SDS011;38422;53.172;6.974;2024-02-26T13:29:05;5.32;;;2.47;;
52512;SDS011;38422;53.172;6.974;2024-02-26T13:31:30;4.53;;;2.35;;
52512;SDS011;38422;53.172;6.974;2024-02-26T13:33:57;4.95;;;2.60;;
52512;SDS011;38422;53.172;6.974;2024-02-26T13:36:23;4.82;;;2.60;;
52512;SDS011;38422;53.172;6.974;2024-02-26T13:38:53;5.40;;;2.70;;
52512;SDS011;38422;53.172;6.974;2024-02-26T13:41:19;6.15;;;3.40;;
52512;SDS011;38422;53.172;6.974;2024-02-26T13:43:48;5.60;;;3.03;;
52512;SDS011;38422;53.172;6.974;2024-02-26T13:46:14;7.95;;;3.35;;
52512;SDS011;38422;53.172;6.974;2024-02-26T13:48:43;7.18;;;3.28;;
52512;SDS011;38422;53.172;6.974;2024-02-26T13:51:09;6.40;;;3.22;;
52512;SDS011;38422;53.172;6.974;2024-02-26T13:53:35;7.85;;;3.50;;
52512;SDS011;38422;53.172;6.974;2024-02-26T13:56:01;6.28;;;3.20;;
52512;SDS011;38422;53.172;6.974;2024-02-26T13:58:29;6.65;;;3.17;;
52512;SDS011;38422;53.172;6.974;2024-02-26T14:00:55;7.43;;;3.33;;
52512;SDS011;38422;53.172;6.974;2024-02-26T14:03:21;7.05;;;3.25;;
52512;SDS011;38422;53.172;6.974;2024-02-26T14:05:47;8.45;;;3.70;;
52512;SDS011;38422;53.172;6.974;2024-02-26T14:08:13;6.28;;;3.03;;
52512;SDS011;38422;53.172;6.974;2024-02-26T14:10:39;7.35;;;3.45;;
52512;SDS011;38422;53.172;6.974;2024-02-26T14:13:05;6.20;;;3.17;;
52512;SDS011;38422;53.172;6.974;2024-02-26T14:15:31;6.85;;;3.08;;
52512;SDS011;38422;53.172;6.974;2024-02-26T14:17:57;7.57;;;3.50;;
52512;SDS011;38422;53.172;6.974;2024-02-26T14:20:23;5.80;;;3.33;;
52512;SDS011;38422;53.172;6.974;2024-02-26T14:22:50;6.70;;;3.10;;
52512;SDS011;38422;53.172;6.974;2024-02-26T14:25:18;8.82;;;3.30;;
52512;SDS011;38422;53.172;6.974;2024-02-26T14:27:45;6.38;;;3.03;;
52512;SDS011;38422;53.172;6.974;2024-02-26T14:30:14;6.57;;;3.60;;
52512;SDS011;38422;53.172;6.974;2024-02-26T14:32:40;6.55;;;2.95;;
52512;SDS011;38422;53.172;6.974;2024-02-26T14:35:06;5.93;;;2.85;;
52512;SDS011;38422;53.172;6.974;2024-02-26T14:37:34;7.93;;;3.20;;
52512;SDS011;38422;53.172;6.974;2024-02-26T14:40:00;6.03;;;3.08;;
52512;SDS011;38422;53.172;6.974;2024-02-26T14:42:27;6.90;;;3.15;;
52512;SDS011;38422;53.172;6.974;2024-02-26T14:44:54;7.88;;;3.38;;
52512;SDS011;38422;53.172;6.974;2024-02-26T14:47:19;6.85;;;3.28;;
52512;SDS011;38422;53.172;6.974;2024-02-26T14:49:45;6.40;;;3.30;;
52512;SDS011;38422;53.172;6.974;2024-02-26T14:52:13;9.40;;;3.25;;
52512;SDS011;38422;53.172;6.974;2024-02-26T14:54:39;6.63;;;3.40;;
52512;SDS011;38422;53.172;6.974;2024-02-26T14:57:05;6.57;;;2.83;;